createdAt,value
2019-02-24T00:00:43.433Z,6.67
2019-02-24T00:03:14.838Z,7.05
2019-02-24T00:05:46.276Z,6.58
2019-02-24T00:08:17.426Z,6.47
2019-02-24T00:10:48.964Z,6.63
2019-02-24T00:13:20.331Z,6.62
2019-02-24T00:15:51.928Z,6.33
2019-02-24T00:18:22.589Z,6.90
2019-02-24T00:20:53.769Z,6.62
2019-02-24T00:23:24.432Z,6.40
2019-02-24T00:25:57.126Z,6.70
2019-02-24T00:28:28.377Z,6.42
2019-02-24T00:31:00.265Z,7.03
2019-02-24T00:33:32.468Z,6.15
2019-02-24T00:36:04.870Z,6.42
2019-02-24T00:38:36.093Z,6.97
2019-02-24T00:41:07.440Z,7.08
2019-02-24T00:43:57.217Z,6.90
2019-02-24T00:46:28.525Z,7.37
2019-02-24T00:48:59.847Z,6.55
2019-02-24T00:51:32.124Z,7.62
2019-02-24T00:54:03.514Z,7.15
2019-02-24T00:56:34.354Z,7.17
2019-02-24T00:59:05.743Z,6.87
2019-02-24T01:01:37.338Z,7.37
2019-02-24T01:04:08.860Z,7.25
2019-02-24T01:06:40.406Z,7.25
2019-02-24T01:09:12.089Z,6.87
2019-02-24T01:11:44.563Z,7.47
2019-02-24T01:14:15.957Z,7.28
2019-02-24T01:16:47.861Z,7.72
2019-02-24T01:19:20.724Z,7.62
2019-02-24T01:21:52.830Z,8.57
2019-02-24T01:24:25.748Z,7.97
2019-02-24T01:26:57.718Z,8.37
2019-02-24T01:29:30.557Z,7.45
2019-02-24T01:32:01.706Z,7.83
2019-02-24T01:34:33.845Z,8.28
2019-02-24T01:37:06.982Z,7.42
2019-02-24T01:39:38.426Z,7.42
2019-02-24T01:42:10.636Z,9.15
2019-02-24T01:44:42.654Z,7.75
2019-02-24T01:47:14.177Z,7.67
2019-02-24T01:49:45.402Z,8.25
2019-02-24T01:52:17.362Z,7.33
2019-02-24T01:54:50.627Z,7.70
2019-02-24T01:57:22.090Z,7.83
2019-02-24T01:59:53.609Z,7.65
2019-02-24T02:02:28.141Z,7.78
2019-02-24T02:05:00.435Z,7.87
2019-02-24T02:07:31.757Z,7.72
2019-02-24T02:10:03.474Z,7.62
2019-02-24T02:12:35.047Z,8.28
2019-02-24T02:15:09.466Z,8.25
2019-02-24T02:17:41.942Z,8.00
2019-02-24T02:20:14.406Z,7.90
2019-02-24T02:22:46.315Z,7.95
2019-02-24T02:25:17.893Z,7.87
2019-02-24T02:27:50.303Z,8.78
2019-02-24T02:30:23.625Z,7.53
2019-02-24T02:32:56.416Z,8.18
2019-02-24T02:35:28.946Z,7.87
2019-02-24T02:38:01.449Z,8.78
2019-02-24T02:40:33.120Z,9.65
2019-02-24T02:43:04.377Z,8.23
2019-02-24T02:45:36.589Z,8.68
2019-02-24T02:48:08.706Z,8.70
2019-02-24T02:50:41.497Z,9.38
2019-02-24T02:53:14.408Z,9.48
2019-02-24T02:55:46.862Z,8.78
2019-02-24T02:58:18.599Z,8.80
2019-02-24T03:00:49.579Z,9.48
2019-02-24T03:06:46.796Z,9.63
2019-02-24T03:09:18.392Z,9.65
2019-02-24T03:11:50.448Z,9.15
2019-02-24T03:14:28.508Z,10.15
2019-02-24T03:17:01.895Z,9.58
2019-02-24T03:19:38.978Z,9.88
2019-02-24T03:22:11.641Z,9.93
2019-02-24T03:24:46.865Z,9.70
2019-02-24T03:27:21.376Z,9.90
2019-02-24T03:29:52.996Z,10.48
2019-02-24T03:32:27.647Z,9.73
2019-02-24T03:35:09.712Z,9.37
2019-02-24T03:41:07.325Z,10.38
2019-02-24T03:43:39.109Z,10.48
2019-02-24T04:02:08.097Z,10.15
2019-02-24T04:04:39.266Z,10.90
2019-02-24T04:07:09.907Z,10.25
2019-02-24T04:09:41.414Z,10.53
2019-02-24T04:12:13.133Z,11.75
2019-02-24T04:14:58.816Z,11.60
2019-02-24T04:17:30.013Z,10.15
2019-02-24T04:20:01.358Z,11.15
2019-02-24T04:22:48.151Z,11.78
2019-02-24T04:25:19.371Z,12.35
2019-02-24T04:27:59.272Z,11.30
2019-02-24T04:30:58.984Z,11.63
2019-02-24T04:33:47.922Z,11.60
2019-02-24T04:36:46.942Z,11.40
2019-02-24T04:39:21.345Z,11.88
2019-02-24T04:41:53.623Z,11.78
2019-02-24T04:47:49.245Z,11.40
2019-02-24T04:50:50.172Z,11.05
2019-02-24T04:59:51.362Z,11.25
2019-02-24T05:06:01.848Z,11.35
2019-02-24T05:08:50.093Z,11.60
2019-02-24T05:11:38.754Z,11.88
2019-02-24T05:18:04.795Z,10.68
2019-02-24T05:26:54.821Z,13.25
2019-02-24T05:29:29.414Z,12.88
2019-02-24T05:38:17.693Z,12.15
2019-02-24T05:40:56.203Z,12.23
2019-02-24T05:43:28.786Z,13.25
2019-02-24T05:46:00.378Z,13.22
2019-02-24T05:48:39.242Z,13.98
2019-02-24T05:51:12.305Z,14.23
2019-02-24T05:53:43.609Z,14.30
2019-02-24T05:56:38.080Z,14.25
2019-02-24T05:59:10.179Z,13.30
2019-02-24T06:01:42.070Z,13.75
2019-02-24T06:04:15.678Z,13.75
2019-02-24T06:06:48.821Z,13.08
2019-02-24T06:09:21.885Z,13.25
2019-02-24T06:12:11.825Z,13.78
2019-02-24T06:14:45.581Z,13.38
2019-02-24T06:17:34.680Z,14.60
2019-02-24T06:20:14.721Z,12.85
2019-02-24T06:22:46.636Z,13.80
2019-02-24T06:25:25.725Z,14.18
2019-02-24T06:31:17.992Z,14.55
2019-02-24T06:33:52.572Z,14.40
2019-02-24T06:36:24.653Z,13.10
2019-02-24T06:39:01.992Z,15.30
2019-02-24T06:41:51.958Z,13.53
2019-02-24T06:45:01.506Z,14.18
2019-02-24T06:47:59.800Z,13.28
2019-02-24T06:50:35.729Z,13.78
2019-02-24T06:53:07.838Z,14.15
2019-02-24T06:55:53.374Z,14.47
2019-02-24T06:58:27.416Z,13.30
2019-02-24T07:01:16.028Z,14.20
2019-02-24T07:04:00.199Z,14.28
2019-02-24T07:06:39.727Z,14.00
2019-02-24T07:09:12.486Z,14.25
2019-02-24T07:12:20.955Z,14.38
2019-02-24T07:14:25.871Z,14.23
2019-02-24T07:44:44.994Z,14.85
2019-02-24T07:50:17.816Z,14.20
2019-02-24T08:15:32.994Z,14.17
2019-02-24T08:18:08.100Z,15.80
2019-02-24T08:20:41.859Z,17.00
2019-02-24T08:23:16.974Z,15.53
2019-02-24T08:25:51.068Z,14.60
2019-02-24T08:28:29.010Z,15.03
2019-02-24T08:31:09.829Z,15.83
2019-02-24T08:33:44.527Z,15.17
2019-02-24T08:36:17.104Z,14.27
2019-02-24T08:38:48.559Z,14.53
2019-02-24T08:41:21.541Z,15.40
2019-02-24T08:43:55.261Z,15.83
2019-02-24T08:46:30.071Z,15.93
2019-02-24T08:49:04.025Z,15.47
2019-02-24T08:51:37.987Z,14.93
2019-02-24T08:54:11.359Z,14.30
2019-02-24T08:56:43.657Z,14.07
2019-02-24T08:59:20.291Z,15.70
2019-02-24T09:01:52.738Z,15.77
2019-02-24T09:04:25.319Z,15.30
2019-02-24T09:06:57.345Z,15.63
2019-02-24T09:09:29.208Z,14.67
2019-02-24T09:12:00.130Z,14.77
2019-02-24T09:14:45.536Z,14.20
2019-02-24T09:17:18.268Z,15.20
2019-02-24T09:19:53.445Z,14.40
2019-02-24T09:22:27.029Z,15.07
2019-02-24T09:24:59.954Z,16.17
2019-02-24T09:27:35.350Z,15.93
2019-02-24T09:40:17.519Z,17.27
2019-02-24T09:45:58.350Z,15.47
2019-02-24T11:51:51.463Z,16.47
2019-02-24T11:54:22.418Z,16.87
2019-02-24T11:56:53.617Z,16.47
2019-02-24T11:59:25.440Z,17.07
2019-02-24T12:01:57.747Z,16.90
2019-02-24T12:04:31.987Z,17.23
2019-02-24T12:07:06.181Z,17.47
2019-02-24T12:09:51.659Z,16.93
2019-02-24T12:12:51.638Z,16.47
2019-02-24T12:15:25.131Z,17.40
2019-02-24T12:18:14.688Z,17.27
2019-02-24T12:20:54.112Z,16.60
2019-02-24T12:23:29.839Z,16.03
2019-02-24T12:26:12.933Z,17.17
2019-02-24T12:34:40.819Z,16.70
2019-02-24T12:35:27.049Z,17.03
2019-02-24T12:37:59.291Z,16.83
2019-02-24T12:44:02.154Z,15.40
2019-02-24T12:46:33.874Z,16.80
2019-02-24T12:49:04.635Z,17.20
2019-02-24T12:51:35.255Z,17.60
2019-02-24T12:54:06.862Z,15.77
2019-02-24T12:56:38.650Z,16.80
2019-02-24T12:59:11.990Z,16.50
2019-02-24T13:01:52.300Z,16.50
2019-02-24T13:04:28.864Z,19.53
2019-02-24T13:07:26.830Z,19.93
2019-02-24T13:09:59.026Z,19.43
2019-02-24T13:12:31.770Z,17.53
2019-02-24T13:29:52.148Z,15.23
2019-02-24T13:34:36.821Z,15.50
2019-02-24T13:35:42.404Z,15.80
2019-02-24T13:38:12.769Z,16.30
2019-02-24T13:40:45.150Z,16.13
2019-02-24T13:43:16.733Z,16.50
2019-02-24T13:45:49.132Z,17.03
2019-02-24T13:48:20.998Z,16.80
2019-02-24T13:50:51.528Z,17.03
2019-02-24T13:53:22.598Z,15.97
2019-02-24T13:55:53.516Z,16.93
2019-02-24T13:58:25.920Z,16.53
2019-02-24T14:01:17.265Z,16.57
2019-02-24T14:03:49.711Z,17.37
2019-02-24T14:09:53.050Z,16.30
2019-02-24T14:16:07.823Z,16.60
2019-02-24T14:18:44.458Z,17.13
2019-02-24T14:24:50.140Z,16.37
2019-02-24T14:27:22.009Z,15.00
2019-02-24T14:29:54.537Z,17.33
2019-02-24T14:32:43.921Z,15.53
2019-02-24T14:35:53.365Z,16.07
2019-02-24T14:38:25.687Z,15.20
2019-02-24T14:40:58.760Z,15.73
2019-02-24T14:50:23.839Z,15.40
2019-02-24T14:53:08.824Z,15.60
2019-02-24T14:55:40.499Z,15.07
2019-02-24T15:02:19.835Z,17.03
2019-02-24T15:04:52.930Z,15.77
2019-02-24T15:07:23.681Z,17.17
2019-02-24T15:09:57.560Z,16.13
2019-02-24T15:12:29.266Z,16.37
2019-02-24T15:15:02.673Z,16.47
2019-02-24T15:18:00.564Z,16.13
2019-02-24T15:20:34.330Z,15.43
2019-02-24T15:23:07.618Z,18.00
2019-02-24T15:25:42.845Z,16.90
2019-02-24T15:28:17.713Z,17.20
2019-02-24T15:30:52.172Z,16.63
2019-02-24T15:33:27.062Z,17.37
2019-02-24T15:35:58.654Z,16.53
2019-02-24T15:38:32.228Z,17.23
2019-02-24T15:41:05.242Z,17.90
2019-02-24T15:43:40.802Z,17.27
2019-02-24T15:46:14.705Z,16.77
2019-02-24T15:48:46.623Z,16.67
2019-02-24T15:51:19.225Z,16.60
2019-02-24T15:53:50.465Z,17.67
2019-02-24T15:56:32.029Z,18.43
2019-02-24T15:59:03.200Z,21.00
2019-02-24T16:01:35.014Z,25.87
2019-02-24T16:04:08.103Z,23.83
2019-02-24T16:06:39.598Z,21.70
2019-02-24T16:09:19.655Z,20.70
2019-02-24T16:11:50.877Z,21.30
2019-02-24T16:14:21.935Z,20.93
2019-02-24T16:16:55.196Z,21.07
2019-02-24T16:19:27.391Z,20.27
2019-02-24T16:21:59.798Z,20.77
2019-02-24T16:24:31.759Z,19.83
2019-02-24T16:27:05.096Z,22.73
2019-02-24T16:29:37.455Z,21.80
2019-02-24T16:32:11.305Z,20.37
2019-02-24T16:34:44.145Z,20.97
2019-02-24T16:37:20.116Z,20.77
2019-02-24T16:39:53.333Z,21.63
2019-02-24T16:42:26.103Z,19.57
2019-02-24T16:44:59.292Z,20.57
2019-02-24T16:47:31.296Z,19.57
2019-02-24T16:50:04.651Z,19.80
2019-02-24T16:52:36.535Z,21.27
2019-02-24T16:55:15.021Z,21.13
2019-02-24T16:57:47.637Z,20.57
2019-02-24T17:00:29.741Z,21.67
2019-02-24T17:03:02.783Z,20.23
2019-02-24T17:05:38.153Z,20.80
2019-02-24T17:08:10.582Z,20.37
2019-02-24T17:10:43.515Z,20.10
2019-02-24T17:13:14.680Z,20.33
2019-02-24T17:15:49.899Z,19.37
2019-02-24T17:18:24.452Z,20.57
2019-02-24T17:20:59.420Z,19.60
2019-02-24T17:23:32.413Z,19.93
2019-02-24T17:26:05.847Z,21.40
2019-02-24T17:28:42.041Z,19.53
2019-02-24T17:31:14.204Z,20.80
2019-02-24T17:33:45.728Z,21.30
2019-02-24T17:36:18.376Z,21.43
2019-02-24T17:38:55.479Z,19.73
2019-02-24T17:41:27.684Z,21.17
2019-02-24T17:44:00.694Z,21.97
2019-02-24T17:46:33.060Z,22.13
2019-02-24T17:49:07.285Z,21.43
2019-02-24T17:51:40.502Z,23.10
2019-02-24T17:54:13.680Z,22.27
2019-02-24T17:56:46.698Z,22.40
2019-02-24T17:59:18.413Z,22.03
2019-02-24T18:01:50.553Z,23.67
2019-02-24T18:04:21.379Z,23.40
2019-02-24T18:06:53.104Z,22.93
2019-02-24T18:09:24.550Z,22.17
2019-02-24T18:11:56.349Z,22.53
2019-02-24T18:14:28.203Z,23.30
2019-02-24T18:16:59.294Z,24.00
2019-02-24T18:19:31.447Z,21.83
2019-02-24T18:22:03.906Z,22.57
2019-02-24T18:24:35.662Z,22.87
2019-02-24T18:27:08.034Z,22.70
2019-02-24T18:29:39.924Z,23.07
2019-02-24T18:32:12.796Z,24.93
2019-02-24T18:34:44.047Z,24.00
2019-02-24T18:37:16.207Z,23.93
2019-02-24T18:39:47.628Z,25.33
2019-02-24T18:42:21.433Z,23.30
2019-02-24T18:44:53.793Z,23.77
2019-02-24T18:47:25.644Z,23.47
2019-02-24T18:49:58.569Z,24.50
2019-02-24T18:52:31.720Z,23.67
2019-02-24T18:55:06.858Z,23.23
2019-02-24T18:57:38.755Z,22.93
2019-02-24T19:00:17.117Z,23.73
2019-02-24T19:02:48.962Z,23.20
2019-02-24T19:05:21.252Z,23.47
2019-02-24T19:07:55.017Z,22.43
2019-02-24T19:10:30.101Z,23.37
2019-02-24T19:13:03.637Z,23.87
2019-02-24T19:15:36.514Z,24.07
2019-02-24T19:18:08.531Z,22.80
2019-02-24T19:20:39.664Z,24.47
2019-02-24T19:23:14.257Z,24.73
2019-02-24T19:25:46.341Z,21.80
2019-02-24T19:28:18.486Z,21.70
2019-02-24T19:30:55.009Z,21.10
2019-02-24T19:33:28.568Z,19.63
2019-02-24T19:36:01.480Z,21.70
2019-02-24T19:38:33.008Z,22.30
2019-02-24T19:41:06.119Z,21.07
2019-02-24T19:43:38.262Z,21.50
2019-02-24T19:46:10.620Z,22.23
2019-02-24T19:48:43.179Z,22.63
2019-02-24T19:51:14.876Z,23.17
2019-02-24T19:53:46.944Z,22.90
2019-02-24T19:56:19.784Z,21.57
2019-02-24T19:58:51.685Z,22.40
2019-02-24T20:01:24.078Z,21.13
2019-02-24T20:03:55.349Z,20.67
2019-02-24T20:06:28.246Z,21.63
2019-02-24T20:09:00.333Z,23.47
2019-02-24T20:11:33.479Z,21.87
2019-02-24T20:14:05.502Z,24.63
2019-02-24T20:16:38.832Z,22.47
2019-02-24T20:19:11.318Z,23.10
2019-02-24T20:21:43.329Z,24.63
2019-02-24T20:24:14.401Z,23.03
2019-02-24T20:26:46.093Z,23.27
2019-02-24T20:29:17.867Z,21.80
2019-02-24T20:31:49.492Z,23.10
2019-02-24T20:34:25.579Z,21.73
2019-02-24T20:36:56.293Z,22.20
2019-02-24T20:39:27.982Z,22.83
2019-02-24T20:41:59.571Z,22.87
2019-02-24T20:44:30.977Z,22.33
2019-02-24T20:47:02.978Z,22.97
2019-02-24T20:49:37.352Z,23.07
2019-02-24T20:52:09.359Z,22.13
2019-02-24T20:58:16.339Z,22.13
2019-02-24T21:00:50.501Z,23.63
2019-02-24T21:03:23.850Z,22.27
2019-02-24T21:05:55.637Z,23.33
2019-02-24T21:08:27.833Z,22.47
2019-02-24T21:14:39.119Z,20.63
2019-02-24T21:17:10.869Z,23.17
2019-02-24T21:19:41.619Z,24.70
2019-02-24T21:28:16.892Z,23.37
2019-02-24T21:30:54.455Z,25.10
2019-02-24T21:33:25.492Z,23.87
2019-02-24T21:35:58.192Z,23.03
2019-02-24T21:38:29.988Z,23.50
2019-02-24T21:41:00.371Z,24.50
2019-02-24T21:43:30.521Z,23.97
2019-02-24T21:46:30.186Z,23.47
2019-02-24T21:49:10.519Z,23.20
2019-02-24T21:51:54.133Z,23.53
2019-02-24T21:54:27.464Z,21.90
2019-02-24T21:56:58.603Z,24.20
2019-02-24T21:59:36.760Z,24.77
2019-02-24T22:02:02.073Z,23.23
2019-02-24T22:04:33.649Z,22.70
2019-02-24T22:07:08.256Z,21.83
2019-02-24T22:09:45.620Z,21.33
2019-02-24T22:12:18.196Z,23.37
2019-02-24T22:14:49.906Z,22.73
2019-02-24T22:17:20.808Z,23.03
2019-02-24T22:19:56.994Z,23.20
2019-02-24T22:22:29.152Z,23.37
2019-02-24T22:25:00.445Z,23.37
2019-02-24T22:27:33.170Z,22.20
2019-02-24T22:30:06.440Z,23.17
2019-02-24T22:32:38.673Z,22.87
2019-02-24T22:35:11.628Z,22.17
2019-02-24T22:37:44.509Z,23.23
2019-02-24T22:40:16.750Z,23.10
2019-02-24T22:42:49.179Z,21.85
2019-02-24T22:45:23.425Z,20.47
2019-02-24T22:47:57.276Z,21.37
2019-02-24T22:50:28.927Z,22.37
2019-02-24T22:53:00.141Z,20.70
2019-02-24T22:55:32.246Z,23.03
2019-02-24T22:58:03.803Z,21.90
2019-02-24T23:00:49.067Z,22.47
2019-02-24T23:03:21.138Z,21.53
2019-02-24T23:05:52.349Z,20.97
2019-02-24T23:08:24.458Z,22.42
2019-02-24T23:10:58.094Z,22.45
2019-02-24T23:13:30.079Z,22.82
2019-02-24T23:16:01.970Z,22.93
2019-02-24T23:18:34.424Z,23.22
2019-02-24T23:21:05.832Z,23.40
2019-02-24T23:23:38.204Z,22.27
2019-02-24T23:26:09.822Z,21.60
2019-02-24T23:28:41.091Z,21.87
2019-02-24T23:31:12.481Z,23.47
2019-02-24T23:33:44.281Z,23.18
2019-02-24T23:36:15.587Z,21.93
2019-02-24T23:38:48.208Z,22.85
2019-02-24T23:41:19.850Z,24.75
2019-02-24T23:43:52.718Z,23.30
2019-02-24T23:46:25.124Z,23.53
2019-02-24T23:48:56.613Z,24.37
2019-02-24T23:51:27.693Z,23.70
2019-02-24T23:53:59.641Z,24.63
2019-02-24T23:56:30.826Z,24.83
2019-02-24T23:59:03.285Z,25.20
